sensor_id;sensor_type;location;lat;lon;timestamp;temperature;humidity
16625;DHT22;8426;48.496;9.098;2022-09-09T00:01:09;12.60;99.90
16625;DHT22;8426;48.496;9.098;2022-09-09T00:06:23;12.50;99.90
16625;DHT22;8426;48.496;9.098;2022-09-09T00:11:37;12.40;99.90
16625;DHT22;8426;48.496;9.098;2022-09-09T00:16:49;12.40;99.90
16625;DHT22;8426;48.496;9.098;2022-09-09T00:22:04;12.40;99.90
16625;DHT22;8426;48.496;9.098;2022-09-09T00:27:16;12.20;99.90
16625;DHT22;8426;48.496;9.098;2022-09-09T00:32:30;12.20;99.90
16625;DHT22;8426;48.496;9.098;2022-09-09T00:37:33;12.40;99.90
16625;DHT22;8426;48.496;9.098;2022-09-09T00:42:41;12.40;99.90
16625;DHT22;8426;48.496;9.098;2022-09-09T00:47:51;12.30;99.90
16625;DHT22;8426;48.496;9.098;2022-09-09T00:53:02;12.20;99.90
16625;DHT22;8426;48.496;9.098;2022-09-09T00:58:13;12.20;99.90
16625;DHT22;8426;48.496;9.098;2022-09-09T01:03:28;12.20;99.90
16625;DHT22;8426;48.496;9.098;2022-09-09T01:09:04;12.10;99.90
16625;DHT22;8426;48.496;9.098;2022-09-09T01:14:16;12.00;99.90
16625;DHT22;8426;48.496;9.098;2022-09-09T01:19:33;11.90;99.90
16625;DHT22;8426;48.496;9.098;2022-09-09T01:25:01;11.80;99.90
16625;DHT22;8426;48.496;9.098;2022-09-09T01:30:11;11.80;99.90
16625;DHT22;8426;48.496;9.098;2022-09-09T01:35:26;11.80;99.90
16625;DHT22;8426;48.496;9.098;2022-09-09T01:40:32;11.70;99.90
16625;DHT22;8426;48.496;9.098;2022-09-09T01:45:37;11.60;99.90
16625;DHT22;8426;48.496;9.098;2022-09-09T01:50:41;11.60;99.90
16625;DHT22;8426;48.496;9.098;2022-09-09T01:56:05;11.50;99.90
16625;DHT22;8426;48.496;9.098;2022-09-09T02:01:17;11.40;99.90
16625;DHT22;8426;48.496;9.098;2022-09-09T02:06:29;11.60;99.90
16625;DHT22;8426;48.496;9.098;2022-09-09T02:11:34;11.70;99.90
16625;DHT22;8426;48.496;9.098;2022-09-09T02:16:42;11.80;99.90
16625;DHT22;8426;48.496;9.098;2022-09-09T02:21:47;11.80;99.90
16625;DHT22;8426;48.496;9.098;2022-09-09T02:26:53;11.90;99.90
16625;DHT22;8426;48.496;9.098;2022-09-09T02:32:01;12.00;99.90
16625;DHT22;8426;48.496;9.098;2022-09-09T02:37:10;12.00;99.90
16625;DHT22;8426;48.496;9.098;2022-09-09T02:42:13;12.10;99.90
16625;DHT22;8426;48.496;9.098;2022-09-09T02:47:26;12.20;99.90
16625;DHT22;8426;48.496;9.098;2022-09-09T02:52:49;12.30;99.90
16625;DHT22;8426;48.496;9.098;2022-09-09T02:57:58;12.40;99.90
16625;DHT22;8426;48.496;9.098;2022-09-09T03:03:05;12.50;99.90
16625;DHT22;8426;48.496;9.098;2022-09-09T03:08:13;12.40;99.90
16625;DHT22;8426;48.496;9.098;2022-09-09T03:13:17;12.40;99.90
16625;DHT22;8426;48.496;9.098;2022-09-09T03:18:23;12.50;99.90
16625;DHT22;8426;48.496;9.098;2022-09-09T03:23:26;12.50;99.90
16625;DHT22;8426;48.496;9.098;2022-09-09T03:28:31;12.50;99.90
16625;DHT22;8426;48.496;9.098;2022-09-09T03:33:36;12.40;99.90
16625;DHT22;8426;48.496;9.098;2022-09-09T03:38:40;12.50;99.90
16625;DHT22;8426;48.496;9.098;2022-09-09T03:43:43;12.70;99.90
16625;DHT22;8426;48.496;9.098;2022-09-09T03:48:48;12.90;99.90
16625;DHT22;8426;48.496;9.098;2022-09-09T03:53:51;13.10;99.90
16625;DHT22;8426;48.496;9.098;2022-09-09T03:59:00;13.20;99.90
16625;DHT22;8426;48.496;9.098;2022-09-09T04:04:05;13.20;99.90
16625;DHT22;8426;48.496;9.098;2022-09-09T04:09:08;13.20;99.90
16625;DHT22;8426;48.496;9.098;2022-09-09T04:14:12;13.00;99.90
16625;DHT22;8426;48.496;9.098;2022-09-09T04:19:17;12.90;99.90
16625;DHT22;8426;48.496;9.098;2022-09-09T04:24:21;12.90;99.90
16625;DHT22;8426;48.496;9.098;2022-09-09T04:29:24;12.80;99.90
16625;DHT22;8426;48.496;9.098;2022-09-09T04:34:29;12.70;99.90
16625;DHT22;8426;48.496;9.098;2022-09-09T04:39:33;12.70;99.90
16625;DHT22;8426;48.496;9.098;2022-09-09T04:44:37;12.70;99.90
16625;DHT22;8426;48.496;9.098;2022-09-09T04:49:42;12.80;99.90
16625;DHT22;8426;48.496;9.098;2022-09-09T04:54:45;12.90;99.90
16625;DHT22;8426;48.496;9.098;2022-09-09T04:59:49;12.90;99.90
16625;DHT22;8426;48.496;9.098;2022-09-09T05:04:54;12.80;99.90
16625;DHT22;8426;48.496;9.098;2022-09-09T05:09:57;12.70;99.90
16625;DHT22;8426;48.496;9.098;2022-09-09T05:15:01;12.60;99.90
16625;DHT22;8426;48.496;9.098;2022-09-09T05:20:06;12.60;99.90
16625;DHT22;8426;48.496;9.098;2022-09-09T05:25:12;12.70;99.90
16625;DHT22;8426;48.496;9.098;2022-09-09T05:30:15;12.70;99.90
16625;DHT22;8426;48.496;9.098;2022-09-09T05:35:22;12.80;99.90
16625;DHT22;8426;48.496;9.098;2022-09-09T05:40:25;12.90;99.90
16625;DHT22;8426;48.496;9.098;2022-09-09T05:45:28;13.10;99.90
16625;DHT22;8426;48.496;9.098;2022-09-09T05:50:32;13.30;99.90
16625;DHT22;8426;48.496;9.098;2022-09-09T05:55:36;13.50;99.90
16625;DHT22;8426;48.496;9.098;2022-09-09T06:00:39;13.80;99.90
16625;DHT22;8426;48.496;9.098;2022-09-09T06:05:44;14.00;99.90
16625;DHT22;8426;48.496;9.098;2022-09-09T06:10:47;14.30;99.90
16625;DHT22;8426;48.496;9.098;2022-09-09T06:15:51;14.50;99.90
16625;DHT22;8426;48.496;9.098;2022-09-09T06:20:57;14.70;99.90
16625;DHT22;8426;48.496;9.098;2022-09-09T06:26:02;15.10;99.90
16625;DHT22;8426;48.496;9.098;2022-09-09T06:31:09;15.70;99.90
16625;DHT22;8426;48.496;9.098;2022-09-09T06:36:15;16.40;99.90
16625;DHT22;8426;48.496;9.098;2022-09-09T06:41:21;17.40;99.90
16625;DHT22;8426;48.496;9.098;2022-09-09T06:46:26;18.10;99.90
16625;DHT22;8426;48.496;9.098;2022-09-09T06:51:37;19.50;99.90
16625;DHT22;8426;48.496;9.098;2022-09-09T06:56:44;19.00;99.90
16625;DHT22;8426;48.496;9.098;2022-09-09T07:01:47;18.60;99.90
16625;DHT22;8426;48.496;9.098;2022-09-09T07:06:58;18.90;99.90
16625;DHT22;8426;48.496;9.098;2022-09-09T07:12:03;19.30;99.90
16625;DHT22;8426;48.496;9.098;2022-09-09T07:17:07;19.30;99.90
16625;DHT22;8426;48.496;9.098;2022-09-09T07:22:12;19.10;99.90
16625;DHT22;8426;48.496;9.098;2022-09-09T07:27:15;19.10;99.90
16625;DHT22;8426;48.496;9.098;2022-09-09T07:32:18;19.30;99.90
16625;DHT22;8426;48.496;9.098;2022-09-09T07:37:24;19.50;99.90
16625;DHT22;8426;48.496;9.098;2022-09-09T07:42:27;19.80;99.90
16625;DHT22;8426;48.496;9.098;2022-09-09T07:47:34;19.90;99.90
16625;DHT22;8426;48.496;9.098;2022-09-09T07:52:39;20.10;99.90
16625;DHT22;8426;48.496;9.098;2022-09-09T07:57:42;19.50;99.90
16625;DHT22;8426;48.496;9.098;2022-09-09T08:02:46;19.70;99.90
16625;DHT22;8426;48.496;9.098;2022-09-09T08:07:50;20.60;99.90
16625;DHT22;8426;48.496;9.098;2022-09-09T08:12:53;21.50;99.90
16625;DHT22;8426;48.496;9.098;2022-09-09T08:18:17;21.20;99.90
16625;DHT22;8426;48.496;9.098;2022-09-09T08:23:21;20.80;99.90
16625;DHT22;8426;48.496;9.098;2022-09-09T08:28:25;20.90;99.90
16625;DHT22;8426;48.496;9.098;2022-09-09T08:33:28;21.20;99.90
16625;DHT22;8426;48.496;9.098;2022-09-09T08:38:33;22.30;99.90
16625;DHT22;8426;48.496;9.098;2022-09-09T08:43:36;24.20;99.90
16625;DHT22;8426;48.496;9.098;2022-09-09T08:48:49;25.00;99.90
16625;DHT22;8426;48.496;9.098;2022-09-09T08:54:02;22.70;99.90
16625;DHT22;8426;48.496;9.098;2022-09-09T08:59:10;21.40;99.90
16625;DHT22;8426;48.496;9.098;2022-09-09T09:04:28;21.10;99.90
16625;DHT22;8426;48.496;9.098;2022-09-09T09:09:42;21.40;99.90
16625;DHT22;8426;48.496;9.098;2022-09-09T09:14:49;21.60;99.90
16625;DHT22;8426;48.496;9.098;2022-09-09T09:19:52;22.50;99.90
16625;DHT22;8426;48.496;9.098;2022-09-09T09:25:04;25.70;99.90
16625;DHT22;8426;48.496;9.098;2022-09-09T09:30:15;27.30;99.90
16625;DHT22;8426;48.496;9.098;2022-09-09T09:35:31;27.40;99.90
16625;DHT22;8426;48.496;9.098;2022-09-09T09:40:50;27.70;99.90
16625;DHT22;8426;48.496;9.098;2022-09-09T09:45:54;28.00;99.90
16625;DHT22;8426;48.496;9.098;2022-09-09T09:51:22;28.10;99.00
16625;DHT22;8426;48.496;9.098;2022-09-09T09:56:28;27.20;99.90
16625;DHT22;8426;48.496;9.098;2022-09-09T10:01:33;26.10;99.90
16625;DHT22;8426;48.496;9.098;2022-09-09T10:06:37;24.50;99.90
16625;DHT22;8426;48.496;9.098;2022-09-09T10:11:48;22.70;99.90
16625;DHT22;8426;48.496;9.098;2022-09-09T10:17:05;21.60;99.90
16625;DHT22;8426;48.496;9.098;2022-09-09T10:22:30;22.30;99.90
16625;DHT22;8426;48.496;9.098;2022-09-09T10:27:44;22.90;99.90
16625;DHT22;8426;48.496;9.098;2022-09-09T10:33:04;23.10;99.90
16625;DHT22;8426;48.496;9.098;2022-09-09T10:38:14;22.90;99.90
16625;DHT22;8426;48.496;9.098;2022-09-09T10:43:39;22.50;99.90
16625;DHT22;8426;48.496;9.098;2022-09-09T10:48:59;22.30;99.90
16625;DHT22;8426;48.496;9.098;2022-09-09T10:54:24;22.60;99.90
16625;DHT22;8426;48.496;9.098;2022-09-09T10:59:39;23.40;99.90
16625;DHT22;8426;48.496;9.098;2022-09-09T11:04:47;23.90;99.90
16625;DHT22;8426;48.496;9.098;2022-09-09T11:09:57;23.80;99.90
16625;DHT22;8426;48.496;9.098;2022-09-09T11:15:17;23.10;99.90
16625;DHT22;8426;48.496;9.098;2022-09-09T11:20:21;22.30;99.90
16625;DHT22;8426;48.496;9.098;2022-09-09T11:25:32;22.80;99.90
16625;DHT22;8426;48.496;9.098;2022-09-09T11:30:52;22.10;99.90
16625;DHT22;8426;48.496;9.098;2022-09-09T11:36:16;21.10;99.90
16625;DHT22;8426;48.496;9.098;2022-09-09T11:41:33;20.80;99.90
16625;DHT22;8426;48.496;9.098;2022-09-09T11:46:41;22.20;99.90
16625;DHT22;8426;48.496;9.098;2022-09-09T11:51:46;23.20;99.90
16625;DHT22;8426;48.496;9.098;2022-09-09T11:56:49;23.30;99.90
16625;DHT22;8426;48.496;9.098;2022-09-09T12:01:57;23.50;99.90
16625;DHT22;8426;48.496;9.098;2022-09-09T12:07:04;23.20;99.90
16625;DHT22;8426;48.496;9.098;2022-09-09T12:12:26;23.60;99.90
16625;DHT22;8426;48.496;9.098;2022-09-09T12:17:36;23.20;99.90
16625;DHT22;8426;48.496;9.098;2022-09-09T12:22:59;23.10;99.90
16625;DHT22;8426;48.496;9.098;2022-09-09T12:28:14;23.00;99.90
16625;DHT22;8426;48.496;9.098;2022-09-09T12:33:20;23.10;99.90
16625;DHT22;8426;48.496;9.098;2022-09-09T12:38:31;23.10;99.90
16625;DHT22;8426;48.496;9.098;2022-09-09T12:43:35;22.30;99.90
16625;DHT22;8426;48.496;9.098;2022-09-09T12:48:41;22.00;99.90
16625;DHT22;8426;48.496;9.098;2022-09-09T12:53:50;22.60;99.90
16625;DHT22;8426;48.496;9.098;2022-09-09T12:58:59;22.50;99.90
16625;DHT22;8426;48.496;9.098;2022-09-09T13:04:19;22.60;99.90
16625;DHT22;8426;48.496;9.098;2022-09-09T13:09:24;23.20;99.90
16625;DHT22;8426;48.496;9.098;2022-09-09T13:14:31;23.00;99.90
16625;DHT22;8426;48.496;9.098;2022-09-09T13:19:39;23.40;99.90
16625;DHT22;8426;48.496;9.098;2022-09-09T13:24:47;23.30;99.90
16625;DHT22;8426;48.496;9.098;2022-09-09T13:29:51;23.30;99.90
16625;DHT22;8426;48.496;9.098;2022-09-09T13:34:59;22.30;99.90
16625;DHT22;8426;48.496;9.098;2022-09-09T13:40:04;21.70;99.90
16625;DHT22;8426;48.496;9.098;2022-09-09T13:45:16;21.40;99.90
16625;DHT22;8426;48.496;9.098;2022-09-09T13:50:28;22.30;99.90
16625;DHT22;8426;48.496;9.098;2022-09-09T13:55:32;22.60;99.90
16625;DHT22;8426;48.496;9.098;2022-09-09T14:00:35;21.80;99.90
16625;DHT22;8426;48.496;9.098;2022-09-09T14:05:41;22.00;99.90
16625;DHT22;8426;48.496;9.098;2022-09-09T14:10:48;22.20;99.90
16625;DHT22;8426;48.496;9.098;2022-09-09T14:15:57;22.20;99.90
16625;DHT22;8426;48.496;9.098;2022-09-09T14:21:02;22.30;99.90
16625;DHT22;8426;48.496;9.098;2022-09-09T14:26:05;22.20;99.90
16625;DHT22;8426;48.496;9.098;2022-09-09T14:31:09;22.40;99.90
16625;DHT22;8426;48.496;9.098;2022-09-09T14:36:14;22.30;99.90
16625;DHT22;8426;48.496;9.098;2022-09-09T14:41:18;22.00;99.90
16625;DHT22;8426;48.496;9.098;2022-09-09T14:46:24;22.60;99.90
16625;DHT22;8426;48.496;9.098;2022-09-09T14:51:34;22.70;99.90
16625;DHT22;8426;48.496;9.098;2022-09-09T14:56:43;22.90;99.30
16625;DHT22;8426;48.496;9.098;2022-09-09T15:01:47;22.50;99.90
16625;DHT22;8426;48.496;9.098;2022-09-09T15:06:51;21.70;99.90
16625;DHT22;8426;48.496;9.098;2022-09-09T15:11:55;21.30;99.90
16625;DHT22;8426;48.496;9.098;2022-09-09T15:16:59;21.40;99.90
16625;DHT22;8426;48.496;9.098;2022-09-09T15:22:04;21.40;99.90
16625;DHT22;8426;48.496;9.098;2022-09-09T15:27:08;21.30;99.90
16625;DHT22;8426;48.496;9.098;2022-09-09T15:32:11;21.10;99.90
16625;DHT22;8426;48.496;9.098;2022-09-09T15:37:16;21.10;99.90
16625;DHT22;8426;48.496;9.098;2022-09-09T15:42:19;20.80;99.90
16625;DHT22;8426;48.496;9.098;2022-09-09T15:47:22;20.70;99.90
16625;DHT22;8426;48.496;9.098;2022-09-09T15:52:27;20.60;99.90
16625;DHT22;8426;48.496;9.098;2022-09-09T15:57:30;20.60;99.90
16625;DHT22;8426;48.496;9.098;2022-09-09T16:02:34;20.50;99.90
16625;DHT22;8426;48.496;9.098;2022-09-09T16:07:40;20.40;99.90
16625;DHT22;8426;48.496;9.098;2022-09-09T16:12:44;20.40;99.90
16625;DHT22;8426;48.496;9.098;2022-09-09T16:17:48;20.30;99.90
16625;DHT22;8426;48.496;9.098;2022-09-09T16:22:52;20.00;99.90
16625;DHT22;8426;48.496;9.098;2022-09-09T16:27:56;20.10;99.90
16625;DHT22;8426;48.496;9.098;2022-09-09T16:32:59;20.00;99.90
16625;DHT22;8426;48.496;9.098;2022-09-09T16:38:03;19.60;99.90
16625;DHT22;8426;48.496;9.098;2022-09-09T16:43:07;19.20;99.90
16625;DHT22;8426;48.496;9.098;2022-09-09T16:48:11;18.90;99.90
16625;DHT22;8426;48.496;9.098;2022-09-09T16:53:15;18.60;99.90
16625;DHT22;8426;48.496;9.098;2022-09-09T16:58:19;18.40;99.90
16625;DHT22;8426;48.496;9.098;2022-09-09T17:03:22;18.20;99.90
16625;DHT22;8426;48.496;9.098;2022-09-09T17:08:28;17.90;99.90
16625;DHT22;8426;48.496;9.098;2022-09-09T17:13:33;17.80;99.90
16625;DHT22;8426;48.496;9.098;2022-09-09T17:18:36;17.70;99.90
16625;DHT22;8426;48.496;9.098;2022-09-09T17:23:41;17.50;99.90
16625;DHT22;8426;48.496;9.098;2022-09-09T17:28:45;17.30;99.90
16625;DHT22;8426;48.496;9.098;2022-09-09T17:33:51;17.00;99.90
16625;DHT22;8426;48.496;9.098;2022-09-09T17:38:57;16.70;99.90
16625;DHT22;8426;48.496;9.098;2022-09-09T17:44:01;16.50;99.90
16625;DHT22;8426;48.496;9.098;2022-09-09T17:49:07;16.20;99.90
16625;DHT22;8426;48.496;9.098;2022-09-09T17:54:13;16.20;99.90
16625;DHT22;8426;48.496;9.098;2022-09-09T17:59:18;16.20;99.90
16625;DHT22;8426;48.496;9.098;2022-09-09T18:04:22;16.10;99.90
16625;DHT22;8426;48.496;9.098;2022-09-09T18:09:28;16.20;99.90
16625;DHT22;8426;48.496;9.098;2022-09-09T18:14:32;16.40;99.90
16625;DHT22;8426;48.496;9.098;2022-09-09T18:19:36;16.50;99.90
16625;DHT22;8426;48.496;9.098;2022-09-09T18:24:41;16.50;99.90
16625;DHT22;8426;48.496;9.098;2022-09-09T18:29:49;16.40;99.90
16625;DHT22;8426;48.496;9.098;2022-09-09T18:34:53;16.30;99.90
16625;DHT22;8426;48.496;9.098;2022-09-09T18:40:02;16.40;99.90
16625;DHT22;8426;48.496;9.098;2022-09-09T18:45:06;16.40;99.90
16625;DHT22;8426;48.496;9.098;2022-09-09T18:50:10;16.30;99.90
16625;DHT22;8426;48.496;9.098;2022-09-09T18:55:15;16.20;99.90
16625;DHT22;8426;48.496;9.098;2022-09-09T19:00:18;16.10;99.90
16625;DHT22;8426;48.496;9.098;2022-09-09T19:05:22;16.10;99.90
16625;DHT22;8426;48.496;9.098;2022-09-09T19:10:27;16.00;99.90
16625;DHT22;8426;48.496;9.098;2022-09-09T19:15:35;15.90;99.90
16625;DHT22;8426;48.496;9.098;2022-09-09T19:20:40;15.70;99.90
16625;DHT22;8426;48.496;9.098;2022-09-09T19:25:49;15.60;99.90
16625;DHT22;8426;48.496;9.098;2022-09-09T19:30:55;15.50;99.90
16625;DHT22;8426;48.496;9.098;2022-09-09T19:36:00;15.40;99.90
16625;DHT22;8426;48.496;9.098;2022-09-09T19:41:07;15.30;99.90
16625;DHT22;8426;48.496;9.098;2022-09-09T19:46:13;14.90;99.90
16625;DHT22;8426;48.496;9.098;2022-09-09T19:51:18;14.70;99.90
16625;DHT22;8426;48.496;9.098;2022-09-09T19:56:25;14.60;99.90
16625;DHT22;8426;48.496;9.098;2022-09-09T20:01:29;14.60;99.90
16625;DHT22;8426;48.496;9.098;2022-09-09T20:06:57;14.50;99.90
16625;DHT22;8426;48.496;9.098;2022-09-09T20:12:03;14.60;99.90
16625;DHT22;8426;48.496;9.098;2022-09-09T20:17:07;14.50;99.90
16625;DHT22;8426;48.496;9.098;2022-09-09T20:22:11;14.50;99.90
16625;DHT22;8426;48.496;9.098;2022-09-09T20:27:16;14.50;99.90
16625;DHT22;8426;48.496;9.098;2022-09-09T20:32:21;14.50;99.90
16625;DHT22;8426;48.496;9.098;2022-09-09T20:37:25;14.40;99.90
16625;DHT22;8426;48.496;9.098;2022-09-09T20:42:30;14.40;99.90
16625;DHT22;8426;48.496;9.098;2022-09-09T20:47:33;14.20;99.90
16625;DHT22;8426;48.496;9.098;2022-09-09T20:52:36;14.20;99.90
16625;DHT22;8426;48.496;9.098;2022-09-09T20:57:41;14.10;99.90
16625;DHT22;8426;48.496;9.098;2022-09-09T21:02:45;14.00;99.90
16625;DHT22;8426;48.496;9.098;2022-09-09T21:07:48;13.90;99.90
16625;DHT22;8426;48.496;9.098;2022-09-09T21:12:52;13.90;99.90
16625;DHT22;8426;48.496;9.098;2022-09-09T21:17:56;13.80;99.90
16625;DHT22;8426;48.496;9.098;2022-09-09T21:23:02;13.60;99.90
16625;DHT22;8426;48.496;9.098;2022-09-09T21:28:06;13.50;99.90
16625;DHT22;8426;48.496;9.098;2022-09-09T21:33:10;13.40;99.90
16625;DHT22;8426;48.496;9.098;2022-09-09T21:38:15;13.30;99.90
16625;DHT22;8426;48.496;9.098;2022-09-09T21:43:24;13.20;99.90
16625;DHT22;8426;48.496;9.098;2022-09-09T21:48:30;13.30;99.90
16625;DHT22;8426;48.496;9.098;2022-09-09T21:53:34;13.30;99.90
16625;DHT22;8426;48.496;9.098;2022-09-09T21:58:39;13.50;99.90
16625;DHT22;8426;48.496;9.098;2022-09-09T22:03:44;13.60;99.90
16625;DHT22;8426;48.496;9.098;2022-09-09T22:08:47;13.70;99.90
16625;DHT22;8426;48.496;9.098;2022-09-09T22:13:52;13.70;99.90
16625;DHT22;8426;48.496;9.098;2022-09-09T22:18:56;13.60;99.90
16625;DHT22;8426;48.496;9.098;2022-09-09T22:24:01;13.70;99.90
16625;DHT22;8426;48.496;9.098;2022-09-09T22:29:06;13.80;99.90
16625;DHT22;8426;48.496;9.098;2022-09-09T22:34:09;13.80;99.90
16625;DHT22;8426;48.496;9.098;2022-09-09T22:39:15;13.80;99.90
16625;DHT22;8426;48.496;9.098;2022-09-09T22:44:19;14.00;99.90
16625;DHT22;8426;48.496;9.098;2022-09-09T22:49:23;14.00;99.90
16625;DHT22;8426;48.496;9.098;2022-09-09T22:54:26;14.00;99.90
16625;DHT22;8426;48.496;9.098;2022-09-09T22:59:31;14.10;99.90
16625;DHT22;8426;48.496;9.098;2022-09-09T23:04:34;14.00;99.90
16625;DHT22;8426;48.496;9.098;2022-09-09T23:09:37;13.90;99.90
16625;DHT22;8426;48.496;9.098;2022-09-09T23:14:42;13.70;99.90
16625;DHT22;8426;48.496;9.098;2022-09-09T23:19:46;13.70;99.90
16625;DHT22;8426;48.496;9.098;2022-09-09T23:24:57;13.70;99.90
16625;DHT22;8426;48.496;9.098;2022-09-09T23:30:03;13.80;99.90
16625;DHT22;8426;48.496;9.098;2022-09-09T23:35:07;13.70;99.90
16625;DHT22;8426;48.496;9.098;2022-09-09T23:40:10;13.50;99.90
16625;DHT22;8426;48.496;9.098;2022-09-09T23:45:16;13.30;99.90
16625;DHT22;8426;48.496;9.098;2022-09-09T23:50:20;13.20;99.90
16625;DHT22;8426;48.496;9.098;2022-09-09T23:55:24;13.30;99.90
